Time;durP1;ratioP1;P1;durP2;ratioP2;P2;SDS_P1;SDS_P2;PMS_P1;PMS_P2;Temp;Humidity;BMP_temperature;BMP_pressure;BME280_temperature;BME280_humidity;BME280_pressure;Samples;Min_cycle;Max_cycle;Signal;HPM_P1;HPM_P2
2022/02/19 00:00:05;;;;;;;17.63;8.33;;;10.30;99.90;;;;;;5073509;28;20203;-68
2022/02/19 00:02:32;;;;;;;21.00;9.17;;;10.30;99.90;;;;;;5075817;28;20710;-67
2022/02/19 00:04:59;;;;;;;12.73;8.40;;;10.30;99.90;;;;;;5079311;28;20244;-67
2022/02/19 00:07:25;;;;;;;18.77;9.13;;;10.30;99.90;;;;;;5080179;28;20712;-68
2022/02/19 00:09:51;;;;;;;21.43;8.87;;;10.30;99.90;;;;;;5076139;28;20979;-66
2022/02/19 00:12:18;;;;;;;18.43;7.83;;;10.30;99.90;;;;;;5060335;28;20891;-67
2022/02/19 00:14:44;;;;;;;13.23;7.60;;;10.40;99.90;;;;;;5085838;28;20861;-67
2022/02/19 00:17:11;;;;;;;11.60;6.43;;;10.40;99.90;;;;;;5092895;28;20190;-67
2022/02/19 00:19:37;;;;;;;16.87;5.93;;;10.40;99.90;;;;;;5108360;28;20197;-66
2022/02/19 00:22:08;;;;;;;13.53;6.80;;;10.40;99.90;;;;;;5081305;28;21063;-66
2022/02/19 00:24:34;;;;;;;15.80;6.77;;;10.50;99.90;;;;;;5067783;28;20179;-67
2022/02/19 00:27:00;;;;;;;14.43;7.27;;;10.50;99.90;;;;;;5072310;28;20222;-67
2022/02/19 00:29:26;;;;;;;18.73;6.83;;;10.40;99.90;;;;;;5077654;28;20209;-67
2022/02/19 00:31:53;;;;;;;13.37;6.57;;;10.50;99.90;;;;;;5067831;28;20217;-67
2022/02/19 00:34:19;;;;;;;17.67;6.90;;;10.50;99.90;;;;;;5072175;28;20205;-67
2022/02/19 00:36:45;;;;;;;21.60;6.97;;;10.40;99.90;;;;;;5082521;28;20209;-67
2022/02/19 00:39:12;;;;;;;15.10;7.07;;;10.40;99.90;;;;;;5089303;28;20217;-67
2022/02/19 00:41:38;;;;;;;15.97;6.50;;;10.40;99.90;;;;;;5087612;28;20281;-67
2022/02/19 00:44:06;;;;;;;12.47;6.13;;;10.40;99.90;;;;;;5081659;28;20191;-67
2022/02/19 00:46:36;;;;;;;15.20;6.47;;;10.40;99.90;;;;;;5068529;28;20282;-67
2022/02/19 00:49:03;;;;;;;10.80;5.77;;;10.30;99.90;;;;;;5068344;28;20210;-67
2022/02/19 00:51:31;;;;;;;12.70;5.80;;;10.30;99.90;;;;;;5068920;28;20210;-67
2022/02/19 00:53:59;;;;;;;12.13;5.97;;;10.30;99.90;;;;;;5075256;28;20198;-68
2022/02/19 00:56:25;;;;;;;8.57;5.80;;;10.30;99.90;;;;;;5067887;28;20202;-67
2022/02/19 00:58:52;;;;;;;17.70;5.83;;;10.30;99.90;;;;;;5068598;28;20639;-67
2022/02/19 01:01:19;;;;;;;13.77;5.20;;;10.30;99.90;;;;;;5086376;28;20217;-67
2022/02/19 01:03:47;;;;;;;16.47;6.03;;;10.30;99.90;;;;;;5088186;28;20201;-68
2022/02/19 01:06:14;;;;;;;13.90;5.93;;;10.30;99.90;;;;;;5079937;28;20193;-68
2022/02/19 01:08:40;;;;;;;16.30;6.63;;;10.30;99.90;;;;;;5079670;28;20682;-68
2022/02/19 01:11:06;;;;;;;14.23;7.30;;;10.40;99.90;;;;;;5067540;28;20213;-68
2022/02/19 01:13:32;;;;;;;25.87;7.43;;;10.40;99.90;;;;;;5053630;28;20190;-68
2022/02/19 01:15:58;;;;;;;13.80;7.57;;;10.40;99.90;;;;;;5089079;28;20567;-67
2022/02/19 01:18:25;;;;;;;14.87;6.20;;;10.50;99.90;;;;;;5081901;28;20504;-68
2022/02/19 01:20:51;;;;;;;11.00;5.87;;;10.40;99.90;;;;;;5080226;28;20210;-68
2022/02/19 01:23:17;;;;;;;13.77;6.07;;;10.50;99.90;;;;;;5078380;28;20249;-67
2022/02/19 01:25:44;;;;;;;12.60;3.40;;;10.50;99.90;;;;;;5068803;28;20194;-67
2022/02/19 01:28:10;;;;;;;9.47;2.93;;;10.50;99.90;;;;;;5071193;28;20309;-67
2022/02/19 01:30:37;;;;;;;14.67;3.60;;;10.40;99.90;;;;;;5075204;28;20198;-68
2022/02/19 01:33:03;;;;;;;9.97;2.13;;;10.30;99.90;;;;;;5083088;28;20240;-68
2022/02/19 01:35:30;;;;;;;12.00;2.27;;;10.20;99.90;;;;;;5083215;28;20275;-67
2022/02/19 01:37:56;;;;;;;8.80;2.37;;;10.20;99.90;;;;;;5079352;28;20199;-67
2022/02/19 01:40:22;;;;;;;6.37;1.70;;;10.20;99.90;;;;;;5083935;28;20245;-67
2022/02/19 01:42:49;;;;;;;5.73;2.00;;;10.10;99.90;;;;;;5084285;28;20739;-67
2022/02/19 01:45:18;;;;;;;4.80;1.50;;;10.10;99.90;;;;;;5075973;28;20233;-67
2022/02/19 01:47:44;;;;;;;6.80;1.67;;;10.10;99.90;;;;;;5072300;28;20214;-67
2022/02/19 01:50:11;;;;;;;7.90;2.00;;;10.10;99.90;;;;;;5066985;28;20202;-67
2022/02/19 01:52:41;;;;;;;8.77;1.83;;;10.10;99.90;;;;;;5080597;28;20195;-67
2022/02/19 01:55:09;;;;;;;6.23;1.43;;;10.00;99.90;;;;;;5084710;28;20182;-67
2022/02/19 01:57:36;;;;;;;5.37;2.37;;;10.00;99.90;;;;;;5070688;28;20651;-68
2022/02/19 02:00:06;;;;;;;5.43;1.40;;;10.00;99.90;;;;;;5075796;28;20542;-67
2022/02/19 02:02:33;;;;;;;14.43;1.70;;;9.90;99.90;;;;;;5067776;28;20198;-67
2022/02/19 02:05:00;;;;;;;10.00;2.50;;;9.90;99.90;;;;;;5082069;28;20190;-67
2022/02/19 02:07:27;;;;;;;7.43;1.60;;;9.90;99.90;;;;;;5054693;28;20218;-67
2022/02/19 02:09:53;;;;;;;6.37;1.50;;;9.90;99.90;;;;;;5097636;28;20579;-67
2022/02/19 02:12:19;;;;;;;3.03;1.30;;;9.90;99.90;;;;;;5084434;28;20194;-68
2022/02/19 02:14:46;;;;;;;8.17;1.37;;;9.80;99.90;;;;;;5075896;28;20189;-66
2022/02/19 02:17:13;;;;;;;5.33;1.20;;;9.70;99.90;;;;;;5074964;28;20225;-67
2022/02/19 02:19:40;;;;;;;4.10;1.43;;;9.70;99.90;;;;;;5092394;28;20195;-67
2022/02/19 02:22:08;;;;;;;4.90;2.10;;;9.60;99.90;;;;;;5082491;28;20186;-67
2022/02/19 02:24:37;;;;;;;5.97;1.40;;;9.50;99.90;;;;;;5073985;28;20190;-67
2022/02/19 02:27:07;;;;;;;8.60;1.60;;;9.50;99.90;;;;;;5084571;28;20666;-67
2022/02/19 02:29:42;;;;;;;7.23;1.50;;;9.50;99.90;;;;;;5083698;28;20194;-67
2022/02/19 02:32:09;;;;;;;5.50;1.37;;;9.40;99.90;;;;;;5086726;28;20217;-68
2022/02/19 02:34:52;;;;;;;6.10;1.43;;;9.40;99.90;;;;;;5085283;28;20193;-67
2022/02/19 02:37:19;;;;;;;4.87;1.47;;;9.40;99.90;;;;;;5079594;28;20232;-67
2022/02/19 02:39:47;;;;;;;4.60;1.30;;;9.40;99.90;;;;;;5087273;28;20666;-68
2022/02/19 02:42:15;;;;;;;5.50;2.30;;;9.40;99.90;;;;;;5084503;28;20532;-67
2022/02/19 02:44:42;;;;;;;6.63;1.80;;;9.40;99.90;;;;;;5067305;28;20186;-67
2022/02/19 02:47:09;;;;;;;9.00;2.00;;;9.40;99.90;;;;;;5069328;28;20218;-67
2022/02/19 02:49:37;;;;;;;5.40;2.00;;;9.40;99.90;;;;;;5068760;28;20809;-67
2022/02/19 02:52:07;;;;;;;7.40;1.90;;;9.40;99.90;;;;;;5084900;28;20500;-68
2022/02/19 02:54:34;;;;;;;4.17;1.90;;;9.40;99.90;;;;;;5081613;28;20233;-67
2022/02/19 02:57:00;;;;;;;4.13;1.53;;;9.40;99.90;;;;;;5083415;28;20707;-68
2022/02/19 02:59:26;;;;;;;5.10;1.80;;;9.40;99.90;;;;;;5068883;28;20589;-67
2022/02/19 03:01:53;;;;;;;9.63;2.00;;;9.40;99.90;;;;;;5099198;28;20194;-67
2022/02/19 03:04:19;;;;;;;4.53;1.50;;;9.40;99.90;;;;;;5071432;28;20559;-67
2022/02/19 03:06:46;;;;;;;6.10;1.50;;;9.40;99.90;;;;;;5079912;28;20190;-67
2022/02/19 03:09:12;;;;;;;3.43;1.43;;;9.40;99.90;;;;;;5069375;28;20194;-68
2022/02/19 03:11:39;;;;;;;5.27;1.80;;;9.40;99.90;;;;;;5067117;28;20311;-68
2022/02/19 03:14:05;;;;;;;10.13;2.00;;;9.40;99.90;;;;;;5049156;28;20282;-68
2022/02/19 03:16:33;;;;;;;7.13;2.20;;;9.40;99.90;;;;;;5078348;28;20182;-68
2022/02/19 03:18:59;;;;;;;5.70;1.83;;;9.40;99.90;;;;;;5069051;28;20186;-68
2022/02/19 03:21:26;;;;;;;8.37;1.73;;;9.40;99.90;;;;;;5085246;28;20186;-68
2022/02/19 03:23:52;;;;;;;8.33;1.70;;;9.40;99.90;;;;;;5070651;28;20195;-68
2022/02/19 03:26:20;;;;;;;6.97;1.83;;;9.40;99.90;;;;;;5077600;28;20639;-68
2022/02/19 03:28:46;;;;;;;5.23;1.73;;;9.40;99.90;;;;;;5085251;28;20225;-68
2022/02/19 03:31:13;;;;;;;9.30;1.90;;;9.40;99.90;;;;;;5087419;28;20177;-68
2022/02/19 03:33:39;;;;;;;3.77;1.70;;;9.40;99.90;;;;;;5082131;28;20302;-68
2022/02/19 03:36:07;;;;;;;4.77;1.70;;;9.40;99.90;;;;;;5074749;28;20211;-69
2022/02/19 03:38:33;;;;;;;5.53;1.97;;;9.40;99.90;;;;;;5077517;28;20276;-68
2022/02/19 03:40:59;;;;;;;6.00;1.70;;;9.40;99.90;;;;;;5088711;28;20190;-69
2022/02/19 03:43:25;;;;;;;6.20;2.00;;;9.40;99.90;;;;;;5087686;28;20208;-68
2022/02/19 03:45:52;;;;;;;7.43;1.70;;;9.40;99.90;;;;;;5083978;28;20218;-68
2022/02/19 03:48:18;;;;;;;5.77;1.70;;;9.40;99.90;;;;;;5099093;28;20214;-68
2022/02/19 03:50:44;;;;;;;9.50;1.73;;;9.40;99.90;;;;;;5084399;28;20672;-68
2022/02/19 03:53:12;;;;;;;9.47;2.00;;;9.40;99.90;;;;;;5084422;28;20601;-69
2022/02/19 03:55:39;;;;;;;10.87;1.77;;;9.40;99.90;;;;;;5079393;28;20179;-68
2022/02/19 03:58:06;;;;;;;11.27;1.90;;;9.50;99.90;;;;;;5084658;28;20540;-68
2022/02/19 04:00:32;;;;;;;5.27;1.70;;;9.50;99.90;;;;;;5069893;28;20193;-68
2022/02/19 04:02:58;;;;;;;6.50;1.90;;;9.50;99.90;;;;;;5087646;28;20189;-68
2022/02/19 04:05:24;;;;;;;13.77;2.30;;;9.50;99.90;;;;;;5079264;28;20230;-68
2022/02/19 04:07:50;;;;;;;5.40;2.23;;;9.50;99.90;;;;;;5068261;28;20703;-68
2022/02/19 04:10:17;;;;;;;6.17;2.37;;;9.50;99.90;;;;;;5068094;28;20270;-68
2022/02/19 04:12:43;;;;;;;10.83;2.30;;;9.40;99.90;;;;;;5069343;28;20178;-68
2022/02/19 04:15:10;;;;;;;4.73;1.80;;;9.40;99.90;;;;;;5082849;28;20186;-68
2022/02/19 04:17:39;;;;;;;8.40;2.07;;;9.40;99.90;;;;;;5077079;28;20217;-69
2022/02/19 04:20:07;;;;;;;12.33;2.20;;;9.40;99.90;;;;;;5079099;28;20197;-68
2022/02/19 04:22:35;;;;;;;9.93;2.03;;;9.40;99.90;;;;;;5067613;28;20620;-68
2022/02/19 04:25:02;;;;;;;11.77;2.60;;;9.40;99.90;;;;;;5072368;28;20293;-68
2022/02/19 04:27:28;;;;;;;7.90;2.33;;;9.40;99.90;;;;;;5071314;28;20214;-68
2022/02/19 04:29:54;;;;;;;9.63;2.50;;;9.40;99.90;;;;;;5084111;28;20202;-68
2022/02/19 04:32:21;;;;;;;9.20;2.43;;;9.40;99.90;;;;;;5073747;28;20209;-68
2022/02/19 04:34:47;;;;;;;17.03;2.40;;;9.30;99.90;;;;;;5082563;28;20194;-68
2022/02/19 04:37:13;;;;;;;13.37;2.40;;;9.30;99.90;;;;;;5088858;28;20244;-68
2022/02/19 04:39:39;;;;;;;9.23;2.50;;;9.30;99.90;;;;;;5089457;28;20195;-68
2022/02/19 04:42:06;;;;;;;11.63;2.67;;;9.40;99.90;;;;;;5083939;28;20566;-68
2022/02/19 04:44:34;;;;;;;7.93;2.50;;;9.30;99.90;;;;;;5082726;28;20208;-68
2022/02/19 04:47:00;;;;;;;7.80;2.27;;;9.30;99.90;;;;;;5076725;28;20297;-68
2022/02/19 04:49:26;;;;;;;8.30;2.57;;;9.30;99.90;;;;;;5075398;28;20190;-68
2022/02/19 04:51:53;;;;;;;11.30;3.00;;;9.30;99.90;;;;;;5075945;28;20214;-68
2022/02/19 04:54:19;;;;;;;9.57;2.30;;;9.40;99.90;;;;;;5080897;28;20198;-68
2022/02/19 04:56:45;;;;;;;13.77;2.60;;;9.40;99.90;;;;;;5101564;28;20777;-68
2022/02/19 04:59:12;;;;;;;6.83;2.03;;;9.40;99.90;;;;;;5089034;28;20265;-68
2022/02/19 05:01:39;;;;;;;11.43;2.30;;;9.40;99.90;;;;;;5066571;28;20603;-68
2022/02/19 05:04:05;;;;;;;9.87;2.17;;;9.40;99.90;;;;;;5074214;28;20198;-68
2022/02/19 05:06:31;;;;;;;7.30;2.60;;;9.50;99.90;;;;;;5087746;28;20665;-68
2022/02/19 05:08:58;;;;;;;8.10;2.33;;;9.50;99.90;;;;;;5087351;28;20218;-68
2022/02/19 05:11:25;;;;;;;7.87;2.23;;;9.50;99.90;;;;;;5083223;28;20201;-68
2022/02/19 05:13:51;;;;;;;12.47;2.87;;;9.50;99.90;;;;;;5069987;28;20198;-68
2022/02/19 05:16:17;;;;;;;12.17;2.50;;;9.50;99.90;;;;;;5080653;28;20696;-68
2022/02/19 05:18:43;;;;;;;14.33;2.57;;;9.50;99.90;;;;;;5086803;28;20186;-67
2022/02/19 05:21:10;;;;;;;13.90;2.83;;;9.50;99.90;;;;;;5091528;28;20669;-68
2022/02/19 05:23:36;;;;;;;14.70;3.13;;;9.60;99.90;;;;;;5084746;28;20193;-68
2022/02/19 05:26:03;;;;;;;5.90;2.70;;;9.60;99.90;;;;;;5104126;28;20192;-68
2022/02/19 05:28:29;;;;;;;17.17;2.90;;;9.60;99.90;;;;;;5083575;28;20341;-68
2022/02/19 05:30:56;;;;;;;12.57;2.70;;;9.70;99.90;;;;;;5077783;28;20186;-68
2022/02/19 05:33:22;;;;;;;7.40;2.27;;;9.70;99.90;;;;;;5084309;28;20209;-68
2022/02/19 05:35:48;;;;;;;14.10;2.43;;;9.70;99.90;;;;;;5078212;28;20187;-68
2022/02/19 05:38:14;;;;;;;7.50;2.37;;;9.80;99.90;;;;;;5069904;28;20558;-68
2022/02/19 05:40:41;;;;;;;12.63;3.03;;;9.90;99.90;;;;;;5070186;28;20194;-68
2022/02/19 05:43:08;;;;;;;12.67;2.80;;;9.90;99.90;;;;;;5067468;28;20210;-68
2022/02/19 05:45:34;;;;;;;7.57;2.40;;;9.90;99.90;;;;;;5074420;28;20598;-68
2022/02/19 05:48:00;;;;;;;6.90;2.70;;;10.00;99.90;;;;;;5074459;28;20229;-68
2022/02/19 05:50:27;;;;;;;13.63;2.53;;;10.00;99.90;;;;;;5067546;28;20273;-68
2022/02/19 05:52:53;;;;;;;6.03;2.50;;;10.00;99.90;;;;;;5102290;28;20800;-68
2022/02/19 05:55:19;;;;;;;10.87;3.20;;;10.00;99.90;;;;;;5082884;28;20195;-68
2022/02/19 05:57:47;;;;;;;14.10;3.03;;;10.10;99.90;;;;;;5105370;28;20204;-68
2022/02/19 06:00:15;;;;;;;15.07;3.13;;;10.10;99.90;;;;;;5088083;28;20202;-68
2022/02/19 06:02:42;;;;;;;8.60;2.47;;;10.20;99.90;;;;;;5067293;28;20190;-68
2022/02/19 06:05:08;;;;;;;8.43;2.50;;;10.30;99.90;;;;;;5085935;28;20678;-67
2022/02/19 06:07:35;;;;;;;10.93;2.50;;;10.40;99.90;;;;;;5086077;28;20213;-68
2022/02/19 06:10:01;;;;;;;11.83;2.93;;;10.50;99.90;;;;;;5087954;28;20190;-68
2022/02/19 06:12:28;;;;;;;8.30;2.87;;;10.60;99.90;;;;;;5074657;28;20187;-68
2022/02/19 06:14:54;;;;;;;7.73;2.50;;;10.60;99.90;;;;;;5082281;28;20254;-68
2022/02/19 06:17:20;;;;;;;11.30;3.03;;;10.70;99.90;;;;;;5066622;28;20195;-68
2022/02/19 06:19:46;;;;;;;8.80;3.30;;;10.80;99.90;;;;;;5048735;28;20207;-69
2022/02/19 06:22:13;;;;;;;12.03;2.80;;;10.90;99.90;;;;;;5077996;28;20265;-68
2022/02/19 06:24:39;;;;;;;7.10;2.63;;;11.00;99.90;;;;;;5085840;28;20190;-67
2022/02/19 06:27:05;;;;;;;12.40;2.80;;;11.00;99.90;;;;;;5087984;28;20235;-67
2022/02/19 06:29:32;;;;;;;18.07;3.17;;;11.10;99.90;;;;;;5081149;28;20743;-68
2022/02/19 06:31:58;;;;;;;5.87;2.77;;;11.20;99.90;;;;;;5083000;28;20209;-67
2022/02/19 06:34:24;;;;;;;7.90;2.90;;;11.30;99.90;;;;;;5084735;28;20186;-67
2022/02/19 06:36:51;;;;;;;6.73;3.00;;;11.30;99.90;;;;;;5077496;28;20202;-68
2022/02/19 06:39:17;;;;;;;15.13;2.90;;;11.40;99.90;;;;;;5068283;28;20675;-68
2022/02/19 06:41:43;;;;;;;10.50;3.47;;;11.30;99.90;;;;;;5072447;28;20193;-68
2022/02/19 06:44:10;;;;;;;8.07;2.17;;;11.40;99.90;;;;;;5071429;28;20194;-68
2022/02/19 06:46:36;;;;;;;6.17;2.63;;;11.40;99.90;;;;;;5076711;28;20505;-67
2022/02/19 06:49:03;;;;;;;7.47;2.37;;;11.40;99.90;;;;;;5066636;28;20249;-67
2022/02/19 06:51:30;;;;;;;6.03;3.07;;;11.40;99.90;;;;;;5085128;28;20632;-67
2022/02/19 06:53:56;;;;;;;9.73;2.77;;;11.50;99.90;;;;;;5086856;28;20182;-67
2022/02/19 06:56:30;;;;;;;7.80;2.70;;;11.50;99.90;;;;;;5088091;28;20190;-67
2022/02/19 06:58:59;;;;;;;7.63;2.73;;;11.60;99.90;;;;;;5078786;28;20738;-68
2022/02/19 07:01:28;;;;;;;7.83;2.83;;;11.60;99.90;;;;;;5083047;28;20201;-67
2022/02/19 07:03:58;;;;;;;10.47;3.43;;;11.60;99.90;;;;;;5081735;28;20194;-68
2022/02/19 07:06:25;;;;;;;5.37;2.83;;;11.60;99.90;;;;;;5070666;28;20249;-68
2022/02/19 07:08:52;;;;;;;4.30;2.50;;;11.60;99.90;;;;;;5069307;28;20309;-68
2022/02/19 07:11:19;;;;;;;4.30;2.30;;;11.60;99.90;;;;;;5070669;28;20207;-67
2022/02/19 07:13:45;;;;;;;10.60;2.63;;;11.70;99.90;;;;;;5080114;28;20203;-68
2022/02/19 07:16:11;;;;;;;8.50;2.50;;;11.70;99.90;;;;;;5088625;28;20191;-67
2022/02/19 07:18:37;;;;;;;7.17;2.40;;;11.80;99.90;;;;;;5055045;28;20244;-67
2022/02/19 07:21:04;;;;;;;5.57;2.37;;;11.90;99.90;;;;;;5080698;28;20554;-67
2022/02/19 07:23:31;;;;;;;8.37;1.90;;;11.90;99.90;;;;;;5084859;28;20201;-67
2022/02/19 07:25:59;;;;;;;6.97;2.07;;;11.90;99.90;;;;;;5089575;28;20190;-67
2022/02/19 07:28:25;;;;;;;9.37;2.27;;;12.00;99.90;;;;;;5080876;28;20264;-67
2022/02/19 07:30:51;;;;;;;5.73;2.20;;;12.00;99.90;;;;;;5094094;28;20186;-68
2022/02/19 07:33:18;;;;;;;8.93;2.63;;;12.10;99.90;;;;;;5095240;28;20289;-67
2022/02/19 07:35:47;;;;;;;3.20;1.97;;;12.10;99.90;;;;;;5083954;28;20187;-68
2022/02/19 07:38:13;;;;;;;5.53;2.40;;;12.10;99.90;;;;;;5079763;28;20190;-68
2022/02/19 07:40:39;;;;;;;9.13;2.60;;;12.00;99.90;;;;;;5088293;28;20203;-67
2022/02/19 07:43:05;;;;;;;8.73;2.77;;;12.00;99.90;;;;;;5079230;28;20203;-67
2022/02/19 07:45:32;;;;;;;7.77;3.07;;;12.00;99.90;;;;;;5070854;28;20977;-67
2022/02/19 07:47:58;;;;;;;6.10;2.40;;;12.00;99.90;;;;;;5069424;28;20245;-67
2022/02/19 07:58:39;;;;;;;5.80;2.57;;;12.10;99.90;;;;;;5099137;27;20182;-67
2022/02/19 08:01:08;;;;;;;6.17;2.60;;;12.10;99.90;;;;;;5087405;28;20213;-67
2022/02/19 08:03:35;;;;;;;10.93;2.80;;;12.20;99.90;;;;;;5086170;28;20191;-67
2022/02/19 08:06:02;;;;;;;10.10;2.70;;;12.20;99.90;;;;;;5082519;28;20273;-67
2022/02/19 08:08:28;;;;;;;8.07;2.93;;;12.30;99.90;;;;;;5088597;28;20567;-67
2022/02/19 08:10:55;;;;;;;8.67;2.73;;;12.40;99.90;;;;;;5074756;28;20198;-68
2022/02/19 08:13:23;;;;;;;6.63;2.43;;;12.40;99.90;;;;;;5086025;28;20186;-68
2022/02/19 08:15:50;;;;;;;15.53;3.07;;;12.50;99.90;;;;;;5078580;28;20329;-68
2022/02/19 08:18:18;;;;;;;6.87;2.53;;;12.60;99.90;;;;;;5069944;28;20255;-68
2022/02/19 08:20:47;;;;;;;8.90;2.80;;;12.70;99.90;;;;;;5067743;28;20182;-68
2022/02/19 08:23:16;;;;;;;5.73;2.90;;;12.90;99.90;;;;;;5074478;28;20202;-67
2022/02/19 08:25:43;;;;;;;7.77;2.73;;;13.00;99.90;;;;;;5075285;28;20621;-69
2022/02/19 08:28:11;;;;;;;6.47;3.00;;;13.20;99.90;;;;;;5083631;28;20214;-68
2022/02/19 08:30:41;;;;;;;10.47;3.47;;;13.10;99.90;;;;;;5075207;28;20191;-67
2022/02/19 08:33:10;;;;;;;5.90;3.10;;;13.10;99.90;;;;;;5077438;28;20294;-67
2022/02/19 08:35:38;;;;;;;7.50;3.10;;;13.00;99.90;;;;;;5076402;28;20182;-68
2022/02/19 08:38:07;;;;;;;7.40;2.93;;;12.90;99.90;;;;;;5070804;28;20336;-68
2022/02/19 08:40:34;;;;;;;5.97;3.17;;;12.90;99.90;;;;;;5082510;28;20198;-68
2022/02/19 08:43:00;;;;;;;6.67;2.70;;;13.10;99.90;;;;;;5081842;28;20197;-68
2022/02/19 08:45:27;;;;;;;4.73;2.50;;;13.10;99.90;;;;;;5091063;28;20479;-68
2022/02/19 08:48:01;;;;;;;7.57;2.50;;;13.20;99.90;;;;;;5085031;28;20213;-68
2022/02/19 08:50:30;;;;;;;10.90;3.43;;;13.20;99.90;;;;;;5087997;28;20739;-68
2022/02/19 08:52:56;;;;;;;9.53;4.10;;;13.20;99.90;;;;;;5068846;28;20248;-69
2022/02/19 08:55:24;;;;;;;11.50;4.20;;;13.20;99.90;;;;;;5073744;28;20244;-68
2022/02/19 08:57:50;;;;;;;8.70;3.80;;;13.30;99.90;;;;;;5070319;28;20237;-68
2022/02/19 09:00:17;;;;;;;9.60;4.17;;;13.30;99.90;;;;;;5074561;28;20202;-68
2022/02/19 09:02:44;;;;;;;12.37;4.33;;;13.40;99.90;;;;;;5069625;28;20288;-68
2022/02/19 09:05:13;;;;;;;8.27;4.53;;;13.50;99.90;;;;;;5081091;28;20190;-68
2022/02/19 09:07:41;;;;;;;7.13;4.70;;;13.60;99.90;;;;;;5078699;28;20316;-69
2022/02/19 09:10:11;;;;;;;7.93;4.20;;;13.80;99.90;;;;;;5085197;28;20189;-68
2022/02/19 09:12:46;;;;;;;7.40;4.90;;;13.90;99.90;;;;;;5081257;28;20190;-68
2022/02/19 09:15:19;;;;;;;12.10;5.23;;;14.10;99.90;;;;;;5077725;28;20412;-68
2022/02/19 09:17:45;;;;;;;10.63;5.07;;;14.10;99.90;;;;;;5080274;28;20187;-68
2022/02/19 09:20:14;;;;;;;10.03;5.03;;;14.20;99.90;;;;;;5068671;28;20194;-68
2022/02/19 09:22:40;;;;;;;14.13;5.13;;;14.30;99.90;;;;;;5072210;28;20225;-68
2022/02/19 09:25:11;;;;;;;15.20;5.43;;;14.40;99.90;;;;;;5072521;28;20187;-69
2022/02/19 09:27:39;;;;;;;10.87;5.73;;;14.40;99.90;;;;;;5079092;28;20214;-69
2022/02/19 09:30:08;;;;;;;8.00;5.60;;;14.40;99.90;;;;;;5084764;28;20185;-68
2022/02/19 09:32:36;;;;;;;8.80;5.50;;;14.30;99.90;;;;;;5078283;28;20213;-69
2022/02/19 09:35:03;;;;;;;14.07;6.47;;;14.30;99.90;;;;;;5084793;28;20613;-67
2022/02/19 09:37:30;;;;;;;8.87;4.80;;;14.30;99.90;;;;;;5075999;28;20183;-68
2022/02/19 09:39:57;;;;;;;9.83;5.97;;;14.30;99.90;;;;;;5082343;28;20586;-68
2022/02/19 09:42:24;;;;;;;8.33;5.00;;;14.40;99.90;;;;;;5071433;28;20689;-68
2022/02/19 09:44:56;;;;;;;10.00;5.50;;;14.50;99.90;;;;;;5063009;28;20195;-68
2022/02/19 09:47:28;;;;;;;9.27;5.17;;;14.50;99.90;;;;;;5069570;28;20340;-68
2022/02/19 09:49:57;;;;;;;8.77;5.90;;;14.50;99.90;;;;;;5083740;28;20193;-68
2022/02/19 09:52:24;;;;;;;17.90;5.80;;;14.50;99.90;;;;;;5071797;28;20186;-68
2022/02/19 09:54:56;;;;;;;12.60;6.97;;;14.50;99.90;;;;;;5070401;28;20282;-68
2022/02/19 09:57:22;;;;;;;10.13;6.67;;;14.50;99.90;;;;;;5073752;28;20185;-68
2022/02/19 09:59:48;;;;;;;10.33;6.43;;;14.60;99.90;;;;;;5072286;28;20186;-68
2022/02/19 10:02:15;;;;;;;9.70;5.97;;;14.80;99.90;;;;;;5072395;28;20240;-69
2022/02/19 10:04:45;;;;;;;12.50;5.83;;;15.10;99.90;;;;;;5068685;28;20856;-69
2022/02/19 10:07:17;;;;;;;10.50;6.37;;;15.30;99.90;;;;;;5070170;28;20954;-68
2022/02/19 10:09:50;;;;;;;12.50;7.13;;;15.40;99.90;;;;;;5076674;28;20189;-69
2022/02/19 10:12:17;;;;;;;14.27;7.27;;;15.50;99.90;;;;;;5071297;28;20197;-69
2022/02/19 10:14:45;;;;;;;12.93;7.40;;;15.40;99.90;;;;;;5068701;28;20301;-68
2022/02/19 10:17:18;;;;;;;9.57;6.70;;;15.10;99.90;;;;;;5081515;28;20186;-68
2022/02/19 10:20:02;;;;;;;11.73;7.50;;;14.90;99.90;;;;;;5073471;28;20186;-68
2022/02/19 10:22:39;;;;;;;9.87;6.77;;;14.80;99.90;;;;;;5077356;28;20581;-68
2022/02/19 10:25:16;;;;;;;10.80;7.73;;;14.70;99.90;;;;;;5074956;28;20182;-69
2022/02/19 10:27:45;;;;;;;11.57;7.87;;;14.50;99.90;;;;;;5079948;28;20198;-68
2022/02/19 10:30:19;;;;;;;14.73;7.43;;;14.40;99.90;;;;;;5082992;28;20189;-69
2022/02/19 10:32:57;;;;;;;13.83;7.83;;;14.40;99.90;;;;;;5066418;28;20721;-69
2022/02/19 10:35:41;;;;;;;13.50;8.43;;;14.30;99.90;;;;;;5082397;28;20193;-69
2022/02/19 10:38:10;;;;;;;12.70;8.20;;;14.40;99.90;;;;;;5088648;28;20189;-69
2022/02/19 10:40:43;;;;;;;13.07;9.00;;;14.60;99.90;;;;;;5083642;28;20408;-69
2022/02/19 10:43:17;;;;;;;11.80;8.23;;;14.80;99.90;;;;;;5068846;28;20601;-69
2022/02/19 10:46:03;;;;;;;12.50;7.77;;;14.80;99.90;;;;;;5073126;28;20904;-68
2022/02/19 10:48:38;;;;;;;15.23;8.43;;;14.70;99.90;;;;;;5073877;28;20206;-68
2022/02/19 10:51:11;;;;;;;16.50;8.43;;;14.60;99.90;;;;;;5099852;28;20195;-69
2022/02/19 10:53:39;;;;;;;16.27;8.67;;;14.50;99.90;;;;;;5086944;28;20207;-68
2022/02/19 10:56:17;;;;;;;16.57;9.40;;;14.50;99.90;;;;;;5073604;28;20626;-67
2022/02/19 10:59:13;;;;;;;15.17;11.47;;;14.50;99.90;;;;;;5089645;28;20634;-68
2022/02/19 11:01:50;;;;;;;21.37;12.63;;;14.60;99.90;;;;;;5077023;28;20190;-67
2022/02/19 11:04:19;;;;;;;17.17;12.60;;;14.60;99.90;;;;;;5073862;28;20532;-68
2022/02/19 11:06:47;;;;;;;22.77;13.57;;;14.60;99.90;;;;;;5070167;28;20182;-68
2022/02/19 11:09:15;;;;;;;16.47;12.57;;;14.80;99.90;;;;;;5070081;28;20210;-68
2022/02/19 11:11:46;;;;;;;22.03;13.10;;;15.10;99.90;;;;;;5076969;28;20198;-69
2022/02/19 11:14:15;;;;;;;21.07;12.90;;;15.10;99.90;;;;;;5064303;28;20187;-68
2022/02/19 11:16:42;;;;;;;20.73;12.37;;;15.30;99.90;;;;;;5076818;28;20190;-69
2022/02/19 11:19:09;;;;;;;21.63;13.63;;;15.40;99.90;;;;;;5087581;28;20213;-69
2022/02/19 11:21:37;;;;;;;17.70;13.37;;;15.60;99.90;;;;;;5091843;28;20256;-71
2022/02/19 11:24:08;;;;;;;23.60;14.13;;;15.80;99.90;;;;;;5053227;28;20226;-71
2022/02/19 11:26:36;;;;;;;19.20;14.33;;;15.90;99.90;;;;;;5072329;28;20195;-70
2022/02/19 11:29:14;;;;;;;24.80;14.43;;;15.70;99.90;;;;;;5066438;28;20219;-71
2022/02/19 11:31:44;;;;;;;19.73;14.93;;;15.50;99.90;;;;;;5066496;28;20700;-70
2022/02/19 11:34:12;;;;;;;20.37;14.17;;;15.50;99.90;;;;;;5071454;28;20195;-71
2022/02/19 11:36:39;;;;;;;20.50;14.43;;;15.60;99.90;;;;;;5072041;28;20629;-71
2022/02/19 11:39:06;;;;;;;23.33;13.90;;;15.70;99.90;;;;;;5080915;28;20671;-71
2022/02/19 11:41:37;;;;;;;19.03;13.27;;;15.80;99.90;;;;;;5064478;28;20281;-71
2022/02/19 11:44:27;;;;;;;19.07;14.80;;;15.90;99.90;;;;;;5073826;28;20651;-71
2022/02/19 11:46:56;;;;;;;17.53;12.70;;;15.90;99.90;;;;;;5068056;28;20187;-71
2022/02/19 11:49:27;;;;;;;21.43;12.60;;;16.00;99.90;;;;;;5068858;28;20215;-71
2022/02/19 11:52:02;;;;;;;22.00;13.80;;;16.00;99.90;;;;;;5073138;28;20179;-71
2022/02/19 11:54:30;;;;;;;22.70;14.17;;;15.90;99.90;;;;;;5068721;28;20181;-71
2022/02/19 11:57:24;;;;;;;21.70;14.33;;;15.70;99.90;;;;;;5073505;28;20179;-71
2022/02/19 11:59:53;;;;;;;23.37;14.37;;;15.50;99.90;;;;;;5082374;28;20187;-71
2022/02/19 12:02:28;;;;;;;21.37;14.77;;;15.30;99.90;;;;;;5075768;28;20745;-71
2022/02/19 12:05:18;;;;;;;22.23;15.00;;;15.20;99.90;;;;;;5078127;28;20210;-71
2022/02/19 12:08:02;;;;;;;24.57;15.33;;;15.30;99.90;;;;;;5075867;28;20232;-71
2022/02/19 12:10:37;;;;;;;21.70;13.87;;;15.40;99.90;;;;;;5077220;28;20816;-71
2022/02/19 12:13:11;;;;;;;20.30;14.50;;;15.50;99.90;;;;;;5079378;28;20515;-72
2022/02/19 12:15:41;;;;;;;21.50;14.77;;;15.50;99.90;;;;;;5084394;28;20234;-71
2022/02/19 12:18:12;;;;;;;19.70;13.47;;;15.40;99.90;;;;;;5069444;28;20293;-71
2022/02/19 12:20:41;;;;;;;19.87;13.20;;;15.30;99.90;;;;;;5073213;28;20198;-71
2022/02/19 12:23:10;;;;;;;16.40;11.07;;;15.30;99.90;;;;;;5084418;28;20186;-71
2022/02/19 12:25:58;;;;;;;18.63;11.03;;;15.40;99.90;;;;;;5062481;28;20198;-71
2022/02/19 12:28:25;;;;;;;20.53;11.47;;;15.40;99.90;;;;;;5071643;28;20213;-71
2022/02/19 12:31:24;;;;;;;17.00;11.13;;;15.50;99.90;;;;;;5087085;28;20206;-71
2022/02/19 12:33:53;;;;;;;19.03;11.70;;;15.50;99.90;;;;;;5077836;28;20222;-71
2022/02/19 12:36:21;;;;;;;21.70;11.40;;;15.50;99.90;;;;;;5076475;28;20194;-71
2022/02/19 12:38:54;;;;;;;21.33;12.20;;;15.60;99.90;;;;;;5066175;28;20718;-71
2022/02/19 12:41:22;;;;;;;18.87;10.73;;;15.60;99.90;;;;;;5063573;28;20642;-71
2022/02/19 12:44:08;;;;;;;17.60;11.43;;;15.60;99.90;;;;;;5072399;28;20194;-71
2022/02/19 12:46:37;;;;;;;15.27;11.80;;;15.60;99.90;;;;;;5070026;28;20260;-71
2022/02/19 12:49:04;;;;;;;15.47;11.90;;;15.60;99.90;;;;;;5078523;28;20230;-71
2022/02/19 12:51:31;;;;;;;14.80;11.07;;;15.60;99.90;;;;;;5067988;28;20202;-71
2022/02/19 12:53:57;;;;;;;17.50;11.53;;;15.60;99.90;;;;;;5091542;28;20182;-71
2022/02/19 12:56:29;;;;;;;19.30;12.10;;;15.60;99.90;;;;;;5067360;28;20703;-72